LTFM Airport Information

Runway Information
Airport Frequencies
Airport Navaids
Airport Weather Information & NOTAM
ADDS - METARS form results

(0604 UTC 19 October 2021)
Data provider http://aviationweather.gov/metar/data/
 
METAR text: LTFM 190550Z 04007KT 350V060 9999 SCT025 BKN090 15/11 Q1027 NOSIG RMK RWY17L 05006KT RWY34L 04007KT RWY16R 05006KT RWY36 05007KT RWY18 06006KT
Conditions at: LTFM (ISTANBUL HANALI , TR) observed 0550 UTC 19 October 2021
Temperature: 15.0°C (59°F)
Dewpoint: 11.0°C (52°F) [RH = 77%]
Pressure (altimeter): 30.32 inches Hg (1027.0 mb)
Winds: from the NE (40 degrees) at 8 MPH (7 knots; 3.6 m/s)
Visibility: 6 or more miles (10+ km)
Ceiling: 9000 feet AGL
Clouds: scattered clouds at 2500 feet AGL
broken clouds at 9000 feet AGL
Weather: no significant weather observed at this time

METAR text: LTFM 190520Z 04006KT 340V050 9999 SCT025 BKN090 14/11 Q1027 NOSIG RMK RWY17L 05005KT RWY34L 03007KT RWY16R 04006KT RWY36 05007KT RWY18 05006KT
Conditions at: LTFM (ISTANBUL HANALI , TR) observed 0520 UTC 19 October 2021
Temperature: 14.0°C (57°F)
Dewpoint: 11.0°C (52°F) [RH = 82%]
Pressure (altimeter): 30.32 inches Hg (1027.0 mb)
Winds: from the NE (40 degrees) at 7 MPH (6 knots; 3.1 m/s)
Visibility: 6 or more miles (10+ km)
Ceiling: 9000 feet AGL
Clouds: scattered clouds at 2500 feet AGL
broken clouds at 9000 feet AGL
Weather: no significant weather observed at this time

Forecast for: LTFM (ISTANBUL HANALI , TR)
Text: TAF LTFM 190440Z 1906/2012 03009KT 9999 SCT025 BKN090
Forecast period: 0600 UTC 19 October 2021 to 1200 UTC 20 October 2021
Forecast type: FROM: standard forecast or significant change
Winds: from the NNE (30 degrees) at 10 MPH (9 knots; 4.6 m/s)
Visibility: 6 or more miles (10+ km)
Ceiling: 9000 feet AGL
Clouds: scattered clouds at 2500 feet AGL
broken clouds at 9000 feet AGL
Weather: no significant weather forecast for this period
Text: PROB30
Forecast period: 1400 to 1800 UTC 19 October 2021
Forecast type: TEMPORARY: The following changes expected for less than half the time period
Visibility: missing
Ceiling: 2200 feet AGL
Clouds: scattered clouds at 1200 feet AGL
broken clouds at 2200 feet AGL
Weather: -SHRA  (light rain showers)
Text: TEMPO 1914/1918 -SHRA SCT012 BKN022
Forecast period: 2200 UTC 19 October 2021 to 0200 UTC 20 October 2021
Forecast type: TEMPORARY: The following changes expected for less than half the time period
Visibility: missing
Ceiling: 2200 feet AGL
Clouds: scattered clouds at 1200 feet AGL
broken clouds at 2200 feet AGL
Weather: -SHRA  (light rain showers)